Pacific Jewel — MPRZ — position and weather

sailwx.info

Track history (hours):
 
Tides and Currents Weather Stations Pressure Air Temp Water Temp Dewpoint Dewpoint Depression Visibility Wind Speed Wind Dir Waves Ship Positions

Pacific Jewel

Last reported at 2017-Oct-17 08:00 UTC. Time now 2017-Oct-19 05:34 UTC.
Position S 23°24' E 167°36'.

Length 246 m; draft 8.3 m.

Type: Passenger vessel. MMSI: 235051998.

Wind from 090 at 27 knots

Barometer 1016.6 mb
Air temperature 22.0 ° C
Visibility: greater than 5.4 NM
Dewpoint 20.5 ° C
Water temperature 27.0 ° C

Date/timePositionNaut miles runAvg speedWind from/ knotsBaromVisibWave heightAir tempDewpointWater temp
2017-Oct-17 08:00S 23°24' E 167°36'   090 / 271016.6 5.4 22.020.527.0
2017-Oct-10 08:27S 36°18' E 174°59'510.9
2017-Oct-10 08:00S 36°23' E 174°59'510.8
2017-Oct-10 07:30S 36°28' E 175°00'510.5
2017-Oct-10 07:00S 36°34' E 175°00'510.7
2017-Oct-10 06:30S 36°38' E 174°56'510.9
2017-Oct-10 06:00S 36°42' E 174°52'611.2
2017-Oct-10 05:30S 36°47' E 174°48'4 5.7
2017-Oct-10 04:49S 36°50' E 174°46'0 0.0
2017-Oct-09 19:20S 36°51' E 174°46'0 1.0
2017-Oct-09 18:58S 36°50' E 174°47'3 5.7
2017-Oct-09 18:23S 36°47' E 174°49'513.5
2017-Oct-09 18:00S 36°43' E 174°52'510.7
2017-Oct-09 17:30S 36°39' E 174°56'510.7
2017-Oct-09 17:00S 36°35' E 174°60'610.9
2017-Oct-09 16:28S 36°29' E 175°00'510.8
2017-Oct-09 16:00S 36°24' E 174°59'510.7
2017-Oct-09 15:29S 36°18' E 174°58'87918.9
2017-Oct-07 17:00S 21°48' E 177°18'   090 / 221015.210.8 24.019.427.0
Track history (hours):
 
Tides and Currents Weather Stations Pressure Air Temp Water Temp Dewpoint Dewpoint Depression Visibility Wind Speed Wind Dir Waves Ship Positions

Pacific Jewel

Last reported at 2017-Oct-17 08:00 UTC. Time now 2017-Oct-19 05:34 UTC.
Position S 23°24' E 167°36'.

Length 246 m; draft 8.3 m.

Type: Passenger vessel. MMSI: 235051998.

Wind from 090 at 27 knots

Barometer 1016.6 mb
Air temperature 22.0 ° C
Visibility: greater than 5.4 NM
Dewpoint 20.5 ° C
Water temperature 27.0 ° C

Date/timePositionNaut miles runAvg speedWind from/ knotsBaromVisibWave heightAir tempDewpointWater temp
2017-Oct-17 08:00S 23°24' E 167°36'   090 / 271016.6 5.4 22.020.527.0
2017-Oct-10 08:27S 36°18' E 174°59'510.9
2017-Oct-10 08:00S 36°23' E 174°59'510.8
2017-Oct-10 07:30S 36°28' E 175°00'510.5
2017-Oct-10 07:00S 36°34' E 175°00'510.7
2017-Oct-10 06:30S 36°38' E 174°56'510.9
2017-Oct-10 06:00S 36°42' E 174°52'611.2
2017-Oct-10 05:30S 36°47' E 174°48'4 5.7
2017-Oct-10 04:49S 36°50' E 174°46'0 0.0
2017-Oct-09 19:20S 36°51' E 174°46'0 1.0
2017-Oct-09 18:58S 36°50' E 174°47'3 5.7
2017-Oct-09 18:23S 36°47' E 174°49'513.5
2017-Oct-09 18:00S 36°43' E 174°52'510.7
2017-Oct-09 17:30S 36°39' E 174°56'510.7
2017-Oct-09 17:00S 36°35' E 174°60'610.9
2017-Oct-09 16:28S 36°29' E 175°00'510.8
2017-Oct-09 16:00S 36°24' E 174°59'510.7
2017-Oct-09 15:29S 36°18' E 174°58'87918.9
2017-Oct-07 17:00S 21°48' E 177°18'   090 / 221015.210.8 24.019.427.0

Dump ship's entire track history